Time;durP1;ratioP1;P1;durP2;ratioP2;P2;SDS_P1;SDS_P2;PMS_P1;PMS_P2;Temp;Humidity;BMP_temperature;BMP_pressure;BME280_temperature;BME280_humidity;BME280_pressure;Samples;Min_cycle;Max_cycle;Signal;HPM_P1;HPM_P2
2021/07/13 00:01:44;;;;;;;23.48;17.58;;;19.30;99.90;;;;;;5076735;28;25149;-61
2021/07/13 00:04:11;;;;;;;23.20;17.55;;;19.20;99.90;;;;;;5063856;28;25076;-61
2021/07/13 00:06:37;;;;;;;20.90;17.45;;;19.10;99.90;;;;;;5065575;28;25055;-62
2021/07/13 00:09:05;;;;;;;22.45;17.02;;;19.00;99.90;;;;;;5064236;28;25077;-63
2021/07/13 00:11:31;;;;;;;24.63;18.25;;;18.90;99.90;;;;;;5064068;28;25082;-62
2021/07/13 00:13:56;;;;;;;20.73;17.60;;;18.90;99.90;;;;;;5068012;28;25067;-62
2021/07/13 00:16:22;;;;;;;20.02;17.77;;;19.00;99.90;;;;;;5070145;28;25056;-61
2021/07/13 00:18:47;;;;;;;22.80;17.10;;;18.90;99.90;;;;;;5075975;28;25080;-61
2021/07/13 00:21:13;;;;;;;27.80;17.95;;;18.90;99.90;;;;;;5070942;28;25120;-62
2021/07/13 00:23:38;;;;;;;22.25;17.70;;;18.80;99.90;;;;;;5048012;28;25091;-61
2021/07/13 00:26:05;;;;;;;26.63;19.88;;;18.80;99.90;;;;;;5074312;28;25050;-62
2021/07/13 00:28:31;;;;;;;20.33;17.92;;;18.80;99.90;;;;;;5067341;28;25053;-62
2021/07/13 00:30:57;;;;;;;24.08;18.20;;;18.70;99.90;;;;;;5070904;28;25058;-62
2021/07/13 00:33:23;;;;;;;26.92;20.30;;;18.70;99.90;;;;;;5069121;28;25131;-64
2021/07/13 00:35:48;;;;;;;27.25;19.20;;;18.70;99.90;;;;;;5057911;28;25089;-62
2021/07/13 00:38:14;;;;;;;27.73;22.42;;;18.70;99.90;;;;;;5068532;28;25061;-62
2021/07/13 00:40:40;;;;;;;28.63;21.63;;;18.60;99.90;;;;;;5068613;28;25058;-62
2021/07/13 00:43:05;;;;;;;29.60;21.00;;;18.50;99.90;;;;;;5075686;28;25091;-63
2021/07/13 00:45:31;;;;;;;24.55;19.83;;;18.50;99.90;;;;;;5050759;28;25086;-62
2021/07/13 00:47:57;;;;;;;25.95;20.48;;;18.40;99.90;;;;;;5068874;28;25064;-62
2021/07/13 00:50:25;;;;;;;21.77;18.02;;;18.50;99.90;;;;;;5050767;28;25147;-61
2021/07/13 00:52:51;;;;;;;27.35;20.27;;;18.60;99.90;;;;;;5061974;28;25075;-62
2021/07/13 00:55:18;;;;;;;25.70;19.58;;;18.50;99.90;;;;;;5061498;28;25088;-62
2021/07/13 00:57:44;;;;;;;32.85;21.60;;;18.40;99.90;;;;;;5055141;28;25139;-61
2021/07/13 01:00:14;;;;;;;26.92;21.10;;;18.40;99.90;;;;;;5066555;28;25060;-63
2021/07/13 01:02:40;;;;;;;25.85;19.63;;;18.50;99.90;;;;;;5076687;28;24983;-62
2021/07/13 01:05:12;;;;;;;26.02;20.00;;;18.70;99.90;;;;;;5077743;28;25056;-63
2021/07/13 01:07:50;;;;;;;27.75;19.85;;;18.70;99.90;;;;;;5067528;28;25081;-61
2021/07/13 01:11:07;;;;;;;28.27;20.73;;;18.70;99.90;;;;;;5064787;28;25071;-62
2021/07/13 01:13:59;;;;;;;28.52;21.75;;;18.40;99.90;;;;;;5003608;28;25116;-62
2021/07/13 01:16:31;;;;;;;;;;;18.30;99.90;;;;;;5006948;28;25054;-63
2021/07/13 01:19:22;;;;;;;26.25;19.95;;;18.40;99.90;;;;;;5041601;28;25100;-62
2021/07/13 01:22:04;;;;;;;25.80;20.02;;;18.30;99.90;;;;;;5063990;28;25155;-62
2021/07/13 01:25:03;;;;;;;25.85;20.52;;;18.30;99.90;;;;;;5062067;28;24727;-63
2021/07/13 01:27:47;;;;;;;27.58;20.83;;;18.40;99.90;;;;;;5065973;28;25057;-64
2021/07/13 01:30:20;;;;;;;28.95;20.95;;;18.50;99.90;;;;;;5079711;28;25055;-61
2021/07/13 01:32:50;;;;;;;27.77;21.42;;;18.40;99.90;;;;;;5053548;28;25078;-61
2021/07/13 01:35:33;;;;;;;25.77;20.55;;;18.30;99.90;;;;;;5068094;28;25066;-62
2021/07/13 01:38:00;;;;;;;25.25;19.35;;;18.20;99.90;;;;;;5079866;28;25076;-62
2021/07/13 01:40:27;;;;;;;24.73;19.95;;;18.20;99.90;;;;;;5076218;28;25057;-62
2021/07/13 01:42:54;;;;;;;22.58;19.17;;;18.10;99.90;;;;;;5066435;28;25251;-62
2021/07/13 01:45:20;;;;;;;26.58;19.48;;;18.10;99.90;;;;;;5072388;28;25051;-62
2021/07/13 01:47:47;;;;;;;25.75;19.85;;;18.20;99.90;;;;;;5065768;28;25056;-61
2021/07/13 01:50:14;;;;;;;29.50;21.08;;;18.20;99.90;;;;;;5063021;28;25071;-62
2021/07/13 01:52:41;;;;;;;32.22;21.40;;;18.10;99.90;;;;;;5066051;28;25062;-61
2021/07/13 01:55:08;;;;;;;28.33;20.63;;;18.00;99.90;;;;;;5049966;28;25072;-62
2021/07/13 01:57:34;;;;;;;25.83;19.55;;;18.00;99.90;;;;;;5064287;28;25141;-62
2021/07/13 02:00:05;;;;;;;28.05;20.92;;;18.10;99.90;;;;;;5062909;28;25081;-62
2021/07/13 02:02:31;;;;;;;25.80;20.02;;;18.10;99.90;;;;;;5043714;28;25083;-62
2021/07/13 02:05:00;;;;;;;25.15;20.25;;;18.10;99.90;;;;;;5055823;28;25085;-62
2021/07/13 02:07:26;;;;;;;25.48;19.98;;;18.10;99.90;;;;;;5066951;28;25099;-62
2021/07/13 02:09:52;;;;;;;27.38;20.73;;;18.20;99.90;;;;;;5064792;28;25090;-61
2021/07/13 02:12:18;;;;;;;28.50;21.13;;;18.20;99.90;;;;;;5057563;28;25089;-62
2021/07/13 02:14:44;;;;;;;29.65;22.20;;;18.20;99.90;;;;;;5068509;28;25077;-62
2021/07/13 02:17:10;;;;;;;37.42;27.48;;;18.00;99.90;;;;;;5065414;28;25103;-62
2021/07/13 02:19:36;;;;;;;39.65;28.15;;;17.70;99.90;;;;;;5069079;28;25157;-61
2021/07/13 02:22:03;;;;;;;47.05;32.25;;;17.60;99.90;;;;;;5069876;28;25115;-60
2021/07/13 02:24:29;;;;;;;48.33;31.23;;;17.50;99.90;;;;;;5065987;28;25093;-62
2021/07/13 02:27:10;;;;;;;46.38;31.83;;;17.60;99.90;;;;;;5036858;28;25118;-61
2021/07/13 02:30:03;;;;;;;44.13;31.60;;;17.60;99.90;;;;;;5062258;28;25052;-61
2021/07/13 02:32:46;;;;;;;44.92;32.70;;;17.50;99.90;;;;;;5060901;28;25075;-62
2021/07/13 02:35:13;;;;;;;45.85;33.53;;;17.50;99.90;;;;;;5057434;28;25160;-64
2021/07/13 02:37:41;;;;;;;44.95;31.50;;;17.50;99.90;;;;;;5068801;28;25103;-62
2021/07/13 02:40:12;;;;;;;46.20;31.73;;;17.50;99.90;;;;;;5071229;28;25049;-63
2021/07/13 02:42:42;;;;;;;42.83;31.83;;;17.40;99.90;;;;;;5066403;28;25063;-62
2021/07/13 02:45:08;;;;;;;44.28;30.52;;;17.40;99.90;;;;;;5081228;28;25095;-61
2021/07/13 02:47:35;;;;;;;44.42;32.05;;;17.50;99.90;;;;;;5061760;28;25125;-61
2021/07/13 02:50:02;;;;;;;41.40;29.75;;;17.60;99.90;;;;;;5068825;28;25147;-62
2021/07/13 02:52:31;;;;;;;42.75;30.40;;;17.70;99.90;;;;;;5054866;28;25078;-62
2021/07/13 02:55:04;;;;;;;39.22;29.65;;;17.80;99.90;;;;;;5065846;28;25079;-62
2021/07/13 02:57:31;;;;;;;39.55;30.02;;;17.80;99.90;;;;;;5055522;28;24825;-62
2021/07/13 02:59:58;;;;;;;39.63;29.25;;;17.70;99.90;;;;;;5058030;28;25098;-61
2021/07/13 03:02:25;;;;;;;38.35;29.05;;;17.70;99.90;;;;;;5066243;28;25060;-62
2021/07/13 03:04:52;;;;;;;40.15;30.00;;;17.70;99.90;;;;;;5066200;28;25059;-62
2021/07/13 03:07:21;;;;;;;41.97;29.85;;;17.70;99.90;;;;;;5067002;28;25065;-61
2021/07/13 03:09:49;;;;;;;42.75;31.00;;;17.60;99.90;;;;;;5065344;28;25074;-61
2021/07/13 03:12:16;;;;;;;41.55;29.77;;;17.50;99.90;;;;;;5067851;28;25063;-61
2021/07/13 03:14:43;;;;;;;43.10;31.48;;;17.50;99.90;;;;;;5049920;28;25148;-60
2021/07/13 03:17:10;;;;;;;40.35;29.02;;;17.50;99.90;;;;;;5071055;28;25061;-63
2021/07/13 03:19:36;;;;;;;42.60;29.08;;;17.50;99.90;;;;;;5066399;28;25059;-61
2021/07/13 03:22:05;;;;;;;40.42;28.38;;;17.50;99.90;;;;;;5071228;28;25149;-61
2021/07/13 03:24:31;;;;;;;40.28;29.65;;;17.60;99.90;;;;;;5071332;28;25145;-60
2021/07/13 03:26:59;;;;;;;35.50;27.98;;;17.70;99.90;;;;;;5082199;28;25135;-61
2021/07/13 03:29:25;;;;;;;35.50;25.92;;;17.70;99.90;;;;;;5068398;28;25115;-62
2021/07/13 03:31:52;;;;;;;36.80;27.15;;;17.80;99.90;;;;;;5068806;28;25161;-62
2021/07/13 03:34:18;;;;;;;38.00;28.65;;;17.80;99.90;;;;;;5070493;28;25088;-62
2021/07/13 03:36:47;;;;;;;40.60;28.00;;;17.80;99.90;;;;;;5078049;28;25091;-62
2021/07/13 03:39:14;;;;;;;39.83;29.58;;;17.70;99.90;;;;;;5074392;28;25069;-62
2021/07/13 03:41:41;;;;;;;40.63;28.98;;;17.70;99.90;;;;;;5068620;28;25069;-61
2021/07/13 03:44:07;;;;;;;39.97;28.90;;;17.60;99.90;;;;;;5076921;28;25076;-62
2021/07/13 03:46:35;;;;;;;42.88;28.90;;;17.50;99.90;;;;;;5083990;28;25064;-61
2021/07/13 03:49:03;;;;;;;39.15;28.98;;;17.50;99.90;;;;;;5036752;28;25065;-60
2021/07/13 03:51:40;;;;;;;37.80;28.13;;;17.60;99.90;;;;;;5072499;28;25065;-62
2021/07/13 03:54:07;;;;;;;40.17;27.33;;;17.70;99.90;;;;;;5053637;28;25080;-61
2021/07/13 03:56:33;;;;;;;37.47;26.65;;;17.70;99.90;;;;;;5049950;28;25075;-61
2021/07/13 03:59:00;;;;;;;37.90;28.85;;;17.80;99.90;;;;;;5073773;28;25055;-63
2021/07/13 04:01:26;;;;;;;40.05;27.98;;;17.90;99.90;;;;;;5068710;28;25068;-62
2021/07/13 04:03:52;;;;;;;41.25;28.10;;;18.00;99.90;;;;;;5056867;28;25152;-62
2021/07/13 04:06:17;;;;;;;44.97;31.05;;;17.80;99.90;;;;;;5065991;28;25098;-62
2021/07/13 04:08:43;;;;;;;43.45;28.88;;;17.60;99.90;;;;;;5080264;28;25090;-62
2021/07/13 04:11:08;;;;;;;45.72;27.10;;;17.60;99.90;;;;;;5073433;28;25119;-62
2021/07/13 04:13:34;;;;;;;46.75;29.70;;;17.60;99.90;;;;;;5070599;28;25055;-61
2021/07/13 04:16:00;;;;;;;45.47;28.95;;;17.70;99.90;;;;;;5064901;28;25058;-62
2021/07/13 04:18:25;;;;;;;40.33;29.40;;;17.80;99.90;;;;;;5062274;28;25070;-61
2021/07/13 04:20:51;;;;;;;46.33;30.98;;;17.80;99.90;;;;;;5068665;28;25052;-62
2021/07/13 04:23:17;;;;;;;46.08;33.90;;;17.70;99.90;;;;;;5062262;28;25130;-62
2021/07/13 04:25:43;;;;;;;50.55;32.88;;;17.70;99.90;;;;;;5060902;28;25093;-62
2021/07/13 04:28:10;;;;;;;54.53;34.75;;;17.70;99.90;;;;;;5061380;28;25200;-61
2021/07/13 04:30:36;;;;;;;55.08;35.80;;;17.70;99.90;;;;;;5059583;28;25074;-61
2021/07/13 04:33:02;;;;;;;68.10;41.80;;;17.70;99.90;;;;;;5063108;28;25143;-61
2021/07/13 04:35:28;;;;;;;63.53;38.47;;;17.70;99.90;;;;;;5059044;28;25082;-61
2021/07/13 04:37:53;;;;;;;63.63;40.65;;;17.70;99.90;;;;;;5059423;28;25050;-62
2021/07/13 04:40:19;;;;;;;74.40;41.88;;;17.80;99.90;;;;;;5066353;28;25153;-63
2021/07/13 04:42:45;;;;;;;68.85;41.10;;;17.80;99.90;;;;;;5070226;28;25074;-61
2021/07/13 04:45:11;;;;;;;70.13;43.20;;;17.90;99.90;;;;;;5075719;28;25075;-62
2021/07/13 04:47:36;;;;;;;65.85;39.70;;;18.10;99.90;;;;;;5074039;28;25082;-62
2021/07/13 04:50:04;;;;;;;85.07;46.47;;;18.20;99.90;;;;;;5068145;28;25062;-62
2021/07/13 04:52:29;;;;;;;85.10;45.17;;;18.10;99.90;;;;;;5049198;28;25103;-61
2021/07/13 04:54:55;;;;;;;88.25;48.42;;;18.10;99.90;;;;;;5062540;28;25094;-62
2021/07/13 04:57:20;;;;;;;82.80;45.72;;;18.10;99.90;;;;;;5075081;28;25056;-60
2021/07/13 04:59:46;;;;;;;85.13;47.95;;;18.20;99.90;;;;;;5053828;28;25085;-61
2021/07/13 05:02:11;;;;;;;93.15;49.13;;;18.20;99.90;;;;;;5065565;28;25438;-63
2021/07/13 05:04:37;;;;;;;85.72;48.13;;;18.20;99.90;;;;;;5055540;28;25136;-61
2021/07/13 05:07:03;;;;;;;102.47;51.63;;;18.30;99.90;;;;;;5057249;28;25071;-61
2021/07/13 05:09:28;;;;;;;101.13;52.70;;;18.30;99.90;;;;;;5064056;28;25056;-62
2021/07/13 05:11:54;;;;;;;108.30;53.95;;;18.30;99.90;;;;;;5068404;28;25079;-62
2021/07/13 05:14:20;;;;;;;109.38;54.72;;;18.30;99.90;;;;;;5067969;28;25070;-62
2021/07/13 05:16:45;;;;;;;110.13;57.40;;;18.30;99.90;;;;;;5049496;28;25111;-62
2021/07/13 05:19:13;;;;;;;118.55;57.20;;;18.30;99.90;;;;;;5067757;28;25132;-62
2021/07/13 05:21:41;;;;;;;119.32;57.42;;;18.30;99.90;;;;;;5067993;28;25053;-61
2021/07/13 05:24:06;;;;;;;143.57;62.83;;;18.40;99.90;;;;;;5069900;28;25138;-62
2021/07/13 05:26:32;;;;;;;123.65;61.30;;;18.40;99.90;;;;;;5068492;28;25159;-61
2021/07/13 05:29:03;;;;;;;147.77;64.70;;;18.50;99.90;;;;;;5062902;28;25055;-63
2021/07/13 05:31:30;;;;;;;139.40;65.93;;;18.50;99.90;;;;;;5066727;28;25077;-61
2021/07/13 05:33:59;;;;;;;139.10;68.55;;;18.60;99.90;;;;;;5060096;28;25079;-62
2021/07/13 05:36:25;;;;;;;153.32;67.90;;;18.60;99.90;;;;;;5062797;28;25134;-61
2021/07/13 05:38:53;;;;;;;146.18;66.47;;;18.60;99.90;;;;;;5061115;28;25054;-62
2021/07/13 05:41:20;;;;;;;129.13;64.50;;;18.70;99.90;;;;;;5057698;28;25157;-62
2021/07/13 05:43:46;;;;;;;137.60;67.65;;;18.80;99.90;;;;;;5055828;28;25114;-63
2021/07/13 05:46:11;;;;;;;134.23;66.93;;;18.90;99.90;;;;;;5059428;28;25154;-62
2021/07/13 05:48:37;;;;;;;146.07;66.75;;;18.90;99.90;;;;;;5064106;28;25102;-62
2021/07/13 05:51:03;;;;;;;136.30;65.55;;;18.90;99.90;;;;;;5062819;28;25102;-61
2021/07/13 05:53:28;;;;;;;150.38;68.50;;;18.80;99.90;;;;;;5063197;28;25139;-60
2021/07/13 05:55:54;;;;;;;146.15;66.78;;;18.90;99.90;;;;;;5067317;28;25070;-62
2021/07/13 05:58:20;;;;;;;141.98;67.82;;;18.90;99.90;;;;;;5064444;28;25059;-62
2021/07/13 06:00:47;;;;;;;129.57;64.03;;;19.00;99.90;;;;;;5061770;28;25042;-61
2021/07/13 06:03:13;;;;;;;140.75;63.15;;;19.10;99.90;;;;;;5066934;28;25081;-62
2021/07/13 06:05:38;;;;;;;124.18;63.08;;;19.10;99.90;;;;;;5060865;28;25103;-62
2021/07/13 06:08:04;;;;;;;135.32;64.57;;;19.10;99.90;;;;;;5058430;28;25082;-61
2021/07/13 06:10:30;;;;;;;130.32;64.40;;;19.10;99.90;;;;;;5045073;28;25052;-61
2021/07/13 06:12:56;;;;;;;123.68;62.58;;;19.10;99.90;;;;;;5061433;28;25068;-60
2021/07/13 06:15:21;;;;;;;116.72;58.75;;;19.10;99.90;;;;;;5066146;28;25099;-62
2021/07/13 06:17:47;;;;;;;116.80;59.17;;;19.20;99.90;;;;;;5067292;28;25062;-63
2021/07/13 06:20:13;;;;;;;103.00;56.30;;;19.20;99.90;;;;;;5061617;28;25107;-61
2021/07/13 06:22:40;;;;;;;107.65;57.72;;;19.20;99.90;;;;;;5057434;28;25063;-62
2021/07/13 06:25:06;;;;;;;100.88;55.05;;;19.20;99.90;;;;;;5058139;28;25102;-62
2021/07/13 06:27:32;;;;;;;104.60;55.10;;;19.30;99.90;;;;;;5031958;28;25174;-63
2021/07/13 06:29:58;;;;;;;97.05;54.35;;;19.30;99.90;;;;;;5052378;28;25074;-61
2021/07/13 06:32:23;;;;;;;91.80;52.15;;;19.20;99.90;;;;;;5058841;28;25127;-61
2021/07/13 06:34:49;;;;;;;92.70;52.35;;;19.30;99.90;;;;;;5060473;28;25085;-61
2021/07/13 06:37:15;;;;;;;91.05;50.97;;;19.40;99.90;;;;;;5066814;28;25054;-63
2021/07/13 06:39:40;;;;;;;87.03;51.67;;;19.40;99.90;;;;;;5067155;28;25072;-61
2021/07/13 06:42:06;;;;;;;84.32;50.13;;;19.30;99.90;;;;;;5064206;28;25069;-60
2021/07/13 06:44:32;;;;;;;82.65;48.35;;;19.40;99.90;;;;;;5060453;28;25076;-61
2021/07/13 06:46:57;;;;;;;88.13;48.42;;;19.30;99.90;;;;;;5071531;28;25076;-62
2021/07/13 06:49:23;;;;;;;82.15;47.95;;;19.40;99.90;;;;;;5048602;28;25134;-61
2021/07/13 06:51:49;;;;;;;78.63;44.88;;;19.40;99.90;;;;;;5064730;28;25057;-62
2021/07/13 06:54:15;;;;;;;74.68;45.35;;;19.40;99.90;;;;;;5056018;28;25076;-61
2021/07/13 06:56:40;;;;;;;86.38;47.15;;;19.40;99.90;;;;;;5069759;28;25049;-61
2021/07/13 06:59:06;;;;;;;83.88;48.00;;;19.40;99.90;;;;;;5069068;28;25161;-61
2021/07/13 07:01:31;;;;;;;86.07;47.30;;;19.40;99.90;;;;;;5074625;28;25096;-61
2021/07/13 07:03:57;;;;;;;86.68;47.42;;;19.40;99.90;;;;;;5064509;28;25145;-60
2021/07/13 07:06:22;;;;;;;79.80;46.47;;;19.30;99.90;;;;;;5065120;28;25069;-63
2021/07/13 07:08:48;;;;;;;83.55;47.50;;;19.30;99.90;;;;;;5068126;28;25099;-62
2021/07/13 07:11:13;;;;;;;84.22;45.72;;;19.20;99.90;;;;;;5066925;28;25056;-62
2021/07/13 07:13:40;;;;;;;86.18;47.75;;;19.20;99.90;;;;;;5051064;28;25054;-62
2021/07/13 07:16:05;;;;;;;75.95;45.55;;;19.30;99.90;;;;;;5054272;28;25061;-63
2021/07/13 07:18:31;;;;;;;78.25;45.80;;;19.30;99.90;;;;;;5051999;28;25108;-60
2021/07/13 07:20:57;;;;;;;81.03;44.20;;;19.40;99.90;;;;;;5060258;28;25130;-62
2021/07/13 07:23:23;;;;;;;71.78;43.38;;;19.50;99.90;;;;;;5059736;28;25072;-62
2021/07/13 07:25:48;;;;;;;71.95;42.97;;;19.50;99.90;;;;;;5056320;28;25069;-61
2021/07/13 07:28:14;;;;;;;73.03;43.20;;;19.50;99.90;;;;;;5072012;28;25106;-62
2021/07/13 07:30:40;;;;;;;72.65;44.38;;;19.50;99.90;;;;;;5072712;28;25149;-64
2021/07/13 07:33:06;;;;;;;72.68;44.25;;;19.60;99.90;;;;;;5069903;28;25090;-62
2021/07/13 07:35:32;;;;;;;72.93;43.47;;;19.50;99.90;;;;;;5069268;28;25477;-62
2021/07/13 07:37:58;;;;;;;71.05;42.65;;;19.50;99.90;;;;;;5069242;28;25054;-61
2021/07/13 07:40:24;;;;;;;73.25;43.38;;;19.40;99.90;;;;;;5073515;28;25120;-62
2021/07/13 07:42:52;;;;;;;69.47;42.90;;;19.40;99.90;;;;;;5080015;28;25067;-61
2021/07/13 07:45:18;;;;;;;64.15;42.35;;;19.40;99.90;;;;;;5096623;28;25147;-61
2021/07/13 07:47:44;;;;;;;76.53;44.47;;;19.30;99.90;;;;;;5078520;28;25114;-62
2021/07/13 07:50:11;;;;;;;76.97;44.13;;;19.30;99.90;;;;;;5074864;28;25075;-64
2021/07/13 07:52:37;;;;;;;70.43;41.58;;;19.30;99.90;;;;;;5048595;28;25064;-62
2021/07/13 07:55:07;;;;;;;70.18;43.08;;;19.30;99.90;;;;;;5058366;28;25082;-62
2021/07/13 07:57:33;;;;;;;76.60;43.17;;;19.40;99.90;;;;;;5062462;28;25049;-62
2021/07/13 07:59:59;;;;;;;70.60;42.75;;;19.40;99.90;;;;;;5061990;28;25074;-62
2021/07/13 08:02:24;;;;;;;75.70;45.08;;;19.40;99.90;;;;;;5052197;28;25064;-62
2021/07/13 08:04:50;;;;;;;72.18;44.97;;;19.50;99.90;;;;;;5054417;28;25064;-61
2021/07/13 08:07:15;;;;;;;72.60;44.17;;;19.60;99.90;;;;;;5061070;28;25072;-62
2021/07/13 08:09:41;;;;;;;79.22;45.15;;;19.60;99.90;;;;;;5042201;28;25059;-63
2021/07/13 08:12:07;;;;;;;76.55;44.22;;;19.60;99.90;;;;;;5054444;28;25092;-63
2021/07/13 08:14:33;;;;;;;74.97;44.70;;;19.60;99.90;;;;;;5054404;28;25115;-63
2021/07/13 08:16:58;;;;;;;79.18;47.42;;;19.60;99.90;;;;;;5066592;28;25055;-62
2021/07/13 08:19:24;;;;;;;79.22;45.97;;;19.60;99.90;;;;;;5066023;28;25069;-63
2021/07/13 08:21:50;;;;;;;73.63;44.55;;;19.60;99.90;;;;;;5071920;28;25072;-62
2021/07/13 08:24:16;;;;;;;75.72;45.00;;;19.50;99.90;;;;;;5067172;28;25149;-61
2021/07/13 08:26:42;;;;;;;70.15;44.30;;;19.60;99.90;;;;;;5059427;28;25082;-62
2021/07/13 08:29:08;;;;;;;76.28;43.00;;;19.60;99.90;;;;;;5068860;28;25060;-63
2021/07/13 08:31:34;;;;;;;76.18;45.53;;;19.60;99.90;;;;;;5070484;28;25056;-62
2021/07/13 08:33:59;;;;;;;77.13;47.83;;;19.60;99.90;;;;;;5050818;28;25158;-63
2021/07/13 08:36:25;;;;;;;76.97;47.53;;;19.50;99.90;;;;;;5071487;28;25048;-62
2021/07/13 08:38:51;;;;;;;77.20;45.05;;;19.60;99.90;;;;;;5069629;28;25089;-62
2021/07/13 08:41:22;;;;;;;81.55;46.63;;;19.50;99.90;;;;;;5070375;28;25059;-64
2021/07/13 08:43:50;;;;;;;78.47;47.25;;;19.40;99.90;;;;;;5073553;28;25128;-63
2021/07/13 08:46:17;;;;;;;77.45;44.65;;;19.50;99.90;;;;;;5074665;28;25072;-62
2021/07/13 08:48:43;;;;;;;72.65;45.38;;;19.40;99.90;;;;;;5069560;28;25058;-64
2021/07/13 08:51:09;;;;;;;78.95;46.53;;;19.60;99.90;;;;;;5070796;28;25074;-62
2021/07/13 08:53:34;;;;;;;81.93;47.90;;;19.60;99.90;;;;;;5075693;28;25075;-64
2021/07/13 08:56:00;;;;;;;78.75;46.53;;;19.60;99.90;;;;;;5068486;28;25058;-62
2021/07/13 08:58:26;;;;;;;83.53;45.88;;;19.60;99.90;;;;;;5074850;28;25098;-62
2021/07/13 09:00:53;;;;;;;71.57;47.15;;;19.60;99.90;;;;;;5049845;28;25057;-62
2021/07/13 09:03:21;;;;;;;73.78;45.30;;;19.60;99.90;;;;;;5076504;28;25054;-62
2021/07/13 09:05:50;;;;;;;73.65;45.75;;;19.80;99.90;;;;;;5067512;28;25083;-63
2021/07/13 09:08:26;;;;;;;75.13;44.45;;;19.70;99.90;;;;;;5067849;28;25106;-62
2021/07/13 09:11:13;;;;;;;73.30;46.05;;;19.70;99.90;;;;;;5067138;28;25079;-62
2021/07/13 09:13:47;;;;;;;85.00;47.97;;;19.80;99.90;;;;;;5075969;28;25536;-61
2021/07/13 09:16:23;;;;;;;80.45;47.20;;;19.80;99.90;;;;;;5076137;28;25151;-62
2021/07/13 09:18:51;;;;;;;74.05;46.45;;;19.80;99.90;;;;;;5050248;28;25064;-65
2021/07/13 09:21:35;;;;;;;77.53;47.53;;;19.80;99.90;;;;;;5063853;28;25069;-62
2021/07/13 09:24:05;;;;;;;74.15;46.47;;;19.80;99.90;;;;;;5068821;28;25048;-62
2021/07/13 09:26:55;;;;;;;82.95;47.00;;;19.90;99.90;;;;;;5062328;28;25050;-61
2021/07/13 09:29:32;;;;;;;77.60;45.40;;;19.90;99.90;;;;;;5067246;28;25100;-61
2021/07/13 09:32:16;;;;;;;78.45;47.58;;;20.00;99.90;;;;;;5064451;28;25062;-62
2021/07/13 09:34:52;;;;;;;71.80;44.60;;;20.00;99.90;;;;;;5065662;28;25108;-62
2021/07/13 09:37:29;;;;;;;70.82;43.05;;;20.10;99.90;;;;;;5067430;28;25085;-61
2021/07/13 09:39:59;;;;;;;64.70;38.30;;;20.10;99.90;;;;;;5078515;28;25081;-63
2021/07/13 09:42:28;;;;;;;64.50;41.42;;;20.20;99.90;;;;;;5068280;28;25067;-62
2021/07/13 09:45:22;;;;;;;69.78;43.97;;;20.20;99.90;;;;;;5075114;28;25178;-62
2021/07/13 09:47:50;;;;;;;76.65;43.40;;;20.00;99.90;;;;;;5067411;28;25142;-62
2021/07/13 09:50:43;;;;;;;82.88;44.15;;;20.00;99.90;;;;;;5068776;28;25068;-63
2021/07/13 09:53:13;;;;;;;71.47;42.90;;;20.10;99.90;;;;;;5067845;28;25114;-63
2021/07/13 09:55:39;;;;;;;68.18;42.42;;;20.20;99.90;;;;;;5068972;28;25145;-61
2021/07/13 09:58:21;;;;;;;69.60;40.20;;;20.20;99.90;;;;;;5066769;28;25066;-61
2021/07/13 10:00:52;;;;;;;59.45;40.45;;;20.30;99.90;;;;;;5074335;28;25102;-63
2021/07/13 10:03:20;;;;;;;66.63;41.38;;;20.20;99.90;;;;;;5067737;28;25074;-63
2021/07/13 10:05:49;;;;;;;62.42;38.42;;;20.10;99.90;;;;;;5052164;28;25106;-61
2021/07/13 10:08:16;;;;;;;70.30;40.42;;;20.10;99.90;;;;;;5054855;28;25061;-62
2021/07/13 10:10:44;;;;;;;63.25;39.25;;;20.30;99.90;;;;;;5056396;28;25055;-60
2021/07/13 10:13:12;;;;;;;69.75;38.95;;;20.30;99.90;;;;;;5063836;28;25067;-62
2021/07/13 10:15:38;;;;;;;72.30;42.03;;;20.30;99.90;;;;;;5072604;28;25087;-62
2021/07/13 10:18:08;;;;;;;63.83;39.42;;;20.20;99.90;;;;;;5067655;28;25055;-63
2021/07/13 10:20:36;;;;;;;64.50;38.42;;;20.20;99.90;;;;;;5066653;28;25057;-63
2021/07/13 10:23:07;;;;;;;63.03;38.95;;;20.20;99.90;;;;;;5059460;28;25067;-61
2021/07/13 10:25:35;;;;;;;70.70;42.57;;;20.20;99.90;;;;;;5038713;28;25101;-61
2021/07/13 10:28:02;;;;;;;67.85;41.10;;;20.10;99.90;;;;;;5058141;28;25159;-64
2021/07/13 10:30:27;;;;;;;72.03;41.70;;;20.00;99.90;;;;;;5061069;28;25123;-65
2021/07/13 10:32:53;;;;;;;71.63;41.58;;;20.10;99.90;;;;;;5057198;28;25130;-62
2021/07/13 10:35:23;;;;;;;71.30;41.50;;;20.20;99.90;;;;;;5069021;28;25069;-62
2021/07/13 10:37:54;;;;;;;66.55;40.00;;;20.10;99.90;;;;;;5061844;28;25058;-62
2021/07/13 10:40:25;;;;;;;65.80;39.72;;;20.10;99.90;;;;;;5066450;28;25109;-62
2021/07/13 10:42:58;;;;;;;62.72;38.85;;;20.20;99.90;;;;;;5069925;28;25061;-62
2021/07/13 10:45:47;;;;;;;67.28;39.83;;;20.20;99.90;;;;;;5090278;28;25135;-63
2021/07/13 10:48:20;;;;;;;66.72;40.58;;;20.30;99.90;;;;;;5074910;28;25085;-63
2021/07/13 10:50:51;;;;;;;66.88;40.53;;;20.30;99.90;;;;;;5055016;28;25055;-64
2021/07/13 10:53:25;;;;;;;67.28;40.58;;;20.30;99.90;;;;;;5062899;28;25156;-64
2021/07/13 10:56:06;;;;;;;67.25;42.33;;;20.20;99.90;;;;;;5058450;28;25056;-64
2021/07/13 10:58:34;;;;;;;77.00;42.88;;;20.20;99.90;;;;;;5060210;28;25077;-64
2021/07/13 11:01:07;;;;;;;69.45;39.90;;;20.10;99.90;;;;;;5064907;28;25067;-64
2021/07/13 11:03:33;;;;;;;73.85;44.65;;;20.10;99.90;;;;;;5069237;28;25061;-64
2021/07/13 11:06:03;;;;;;;72.88;43.00;;;20.00;99.90;;;;;;5062149;28;25059;-63
2021/07/13 11:08:50;;;;;;;66.65;42.17;;;20.00;99.90;;;;;;5073458;28;25164;-62
2021/07/13 11:11:22;;;;;;;73.32;43.47;;;20.00;99.90;;;;;;5073087;28;25070;-63
2021/07/13 11:14:02;;;;;;;75.03;41.70;;;19.90;99.90;;;;;;5074217;28;25051;-62
2021/07/13 11:16:29;;;;;;;77.65;42.63;;;19.90;99.90;;;;;;5066359;28;25079;-61
2021/07/13 11:18:56;;;;;;;71.00;43.70;;;20.00;99.90;;;;;;5065780;28;25077;-62
2021/07/13 11:21:28;;;;;;;64.53;40.55;;;20.00;99.90;;;;;;5074068;28;25128;-62
2021/07/13 11:24:09;;;;;;;69.72;41.40;;;20.10;99.90;;;;;;5074613;28;25076;-61
2021/07/13 11:26:40;;;;;;;60.05;38.78;;;20.20;99.90;;;;;;5076109;28;25114;-64
2021/07/13 11:29:13;;;;;;;71.22;40.80;;;20.20;99.90;;;;;;5073880;28;25095;-62
2021/07/13 11:31:40;;;;;;;64.85;38.63;;;20.20;99.90;;;;;;5072424;28;25079;-61
2021/07/13 11:34:14;;;;;;;64.82;38.33;;;20.30;99.90;;;;;;5073461;28;25055;-62
2021/07/13 11:36:42;;;;;;;72.70;40.78;;;20.30;99.90;;;;;;5054996;28;25054;-61
2021/07/13 11:39:10;;;;;;;64.45;38.63;;;20.30;99.90;;;;;;5074996;28;25071;-63
2021/07/13 11:41:37;;;;;;;62.60;38.60;;;20.30;99.90;;;;;;5074101;28;25128;-64
2021/07/13 11:44:08;;;;;;;61.38;37.47;;;20.30;99.90;;;;;;5080797;28;25062;-63
2021/07/13 11:46:36;;;;;;;57.95;36.60;;;20.20;99.90;;;;;;5075828;28;25149;-64
2021/07/13 11:49:05;;;;;;;64.22;38.63;;;20.30;99.90;;;;;;5074488;28;25058;-62
2021/07/13 11:51:33;;;;;;;65.53;37.03;;;20.20;99.90;;;;;;5059653;28;25062;-63
2021/07/13 11:54:03;;;;;;;66.18;38.28;;;20.10;99.90;;;;;;5089086;28;25061;-62
2021/07/13 11:56:30;;;;;;;55.83;36.03;;;20.10;99.90;;;;;;5079020;28;25142;-61
2021/07/13 11:58:56;;;;;;;57.67;37.15;;;20.20;99.90;;;;;;5075640;28;25065;-63
2021/07/13 12:01:24;;;;;;;59.47;36.38;;;20.20;99.90;;;;;;5071217;28;25143;-62
2021/07/13 12:03:52;;;;;;;63.38;37.30;;;20.30;99.90;;;;;;5078294;28;25144;-63
2021/07/13 12:06:20;;;;;;;56.33;34.85;;;20.30;99.90;;;;;;5057072;28;25057;-61
2021/07/13 12:09:00;;;;;;;59.15;36.42;;;20.30;99.90;;;;;;5023697;28;25064;-62
2021/07/13 12:11:28;;;;;;;58.35;35.63;;;20.20;99.90;;;;;;5068256;28;25068;-62
2021/07/13 12:13:55;;;;;;;62.20;37.10;;;20.10;99.90;;;;;;5059676;28;25106;-62
2021/07/13 12:16:24;;;;;;;72.38;38.83;;;20.20;99.90;;;;;;5073118;28;25069;-62
2021/07/13 12:18:51;;;;;;;63.90;37.08;;;20.20;99.90;;;;;;5085199;28;25070;-60
2021/07/13 12:21:18;;;;;;;59.35;35.55;;;20.10;99.90;;;;;;5045436;28;25103;-61
2021/07/13 12:23:45;;;;;;;54.92;35.72;;;20.10;99.90;;;;;;5071277;28;25092;-61
2021/07/13 12:26:30;;;;;;;59.85;37.72;;;20.20;99.90;;;;;;5076013;28;25161;-62
2021/07/13 12:29:03;;;;;;;60.15;36.72;;;20.10;99.90;;;;;;5068773;28;25047;-63
2021/07/13 12:31:28;;;;;;;58.83;37.42;;;20.10;99.90;;;;;;5058491;28;25052;-61
2021/07/13 12:33:54;;;;;;;61.35;36.70;;;20.10;99.90;;;;;;5052874;28;25061;-61